Time;durP1;ratioP1;P1;durP2;ratioP2;P2;SDS_P1;SDS_P2;PMS_P1;PMS_P2;Temp;Humidity;BMP_temperature;BMP_pressure;BME280_temperature;BME280_humidity;BME280_pressure;Samples;Min_cycle;Max_cycle;Signal;HPM_P1;HPM_P2
2023/08/14 00:01:53;;;;;;;8.33;4.00;;;22.90;1.00;;;;;;5005471;28;20186;-73
2023/08/14 00:04:19;;;;;;;7.13;3.97;;;22.80;1.00;;;;;;5006891;28;20464;-73
2023/08/14 00:06:44;;;;;;;5.93;3.63;;;22.90;1.00;;;;;;5004553;28;20656;-73
2023/08/14 00:09:10;;;;;;;6.83;3.97;;;22.90;1.00;;;;;;5006577;28;20299;-73
2023/08/14 00:11:35;;;;;;;6.77;4.07;;;22.90;1.00;;;;;;5005493;28;20193;-73
2023/08/14 00:14:01;;;;;;;6.80;3.87;;;22.90;1.00;;;;;;5006221;28;20210;-73
2023/08/14 00:16:27;;;;;;;5.83;3.50;;;22.90;1.00;;;;;;5004659;28;20232;-73
2023/08/14 00:18:53;;;;;;;9.03;4.10;;;22.90;1.00;;;;;;5006475;28;20182;-73
2023/08/14 00:21:19;;;;;;;8.50;3.90;;;22.90;1.00;;;;;;5004897;28;20212;-73
2023/08/14 00:23:44;;;;;;;9.33;3.70;;;22.90;1.00;;;;;;5001019;28;20484;-73
2023/08/14 00:26:12;;;;;;;8.53;3.50;;;23.00;1.00;;;;;;5005618;28;20571;-73
2023/08/14 00:28:37;;;;;;;7.30;3.70;;;23.00;1.00;;;;;;5005496;28;20205;-73
2023/08/14 00:31:03;;;;;;;5.97;3.83;;;22.80;1.00;;;;;;5006229;28;20963;-73
2023/08/14 00:33:28;;;;;;;5.13;3.40;;;23.30;1.00;;;;;;5004902;28;20289;-73
2023/08/14 00:35:54;;;;;;;6.40;3.80;;;23.10;1.00;;;;;;4996815;28;20244;-73
2023/08/14 00:38:19;;;;;;;4.67;3.50;;;23.10;1.00;;;;;;5004328;28;20177;-73
2023/08/14 00:40:45;;;;;;;11.00;3.80;;;23.10;1.00;;;;;;5010399;28;20194;-73
2023/08/14 00:43:11;;;;;;;8.20;3.70;;;23.20;1.00;;;;;;5007050;28;20710;-73
2023/08/14 00:45:37;;;;;;;6.10;3.77;;;23.10;1.00;;;;;;5008208;28;20202;-73
2023/08/14 00:48:03;;;;;;;12.73;4.30;;;23.30;1.00;;;;;;5010552;28;20235;-73
2023/08/14 00:50:29;;;;;;;6.83;3.70;;;23.20;1.00;;;;;;5011819;28;20178;-73
2023/08/14 00:52:57;;;;;;;6.20;3.90;;;23.30;1.00;;;;;;5012232;28;21069;-73
2023/08/14 00:55:26;;;;;;;6.00;3.63;;;23.20;1.00;;;;;;5007136;28;20281;-72
2023/08/14 00:57:53;;;;;;;4.70;3.43;;;23.30;1.00;;;;;;5008258;28;20429;-73
2023/08/14 01:00:18;;;;;;;10.10;3.70;;;23.30;1.00;;;;;;5012141;28;21261;-73
2023/08/14 01:02:48;;;;;;;9.87;3.60;;;23.30;1.00;;;;;;5011737;28;20515;-72
2023/08/14 01:05:14;;;;;;;8.80;4.33;;;23.30;1.00;;;;;;5012318;28;20235;-73
2023/08/14 01:07:40;;;;;;;8.97;4.03;;;23.40;1.00;;;;;;5011720;28;21289;-73
2023/08/14 01:10:07;;;;;;;5.30;3.40;;;23.40;1.00;;;;;;5011974;28;20892;-73
2023/08/14 01:13:01;;;;;;;5.67;3.73;;;23.50;1.00;;;;;;5009062;28;20576;-73
2023/08/14 01:15:38;;;;;;;6.47;4.27;;;23.90;1.00;;;;;;5010829;28;20433;-72
2023/08/14 01:18:05;;;;;;;7.90;3.70;;;23.40;1.00;;;;;;5003305;28;20452;-73
2023/08/14 01:20:32;;;;;;;7.50;3.70;;;23.70;1.00;;;;;;5008126;28;20443;-73
2023/08/14 01:23:16;;;;;;;6.27;3.50;;;23.40;1.00;;;;;;5008044;28;20560;-73
2023/08/14 01:25:43;;;;;;;7.07;3.60;;;23.40;1.00;;;;;;5006875;28;20451;-73
2023/08/14 01:28:09;;;;;;;7.73;3.50;;;23.40;1.00;;;;;;4997283;28;20449;-73
2023/08/14 01:30:35;;;;;;;7.97;3.93;;;23.40;1.00;;;;;;5008607;28;20440;-73
2023/08/14 01:33:00;;;;;;;6.60;3.90;;;23.50;1.00;;;;;;5009008;28;20547;-73
2023/08/14 01:35:35;;;;;;;6.13;3.50;;;23.40;1.00;;;;;;5008520;28;20945;-72
2023/08/14 01:38:24;;;;;;;6.33;3.60;;;23.50;1.00;;;;;;5008851;28;20197;-73
2023/08/14 01:41:10;;;;;;;4.30;3.50;;;23.40;1.00;;;;;;4996039;28;20437;-72
2023/08/14 01:43:44;;;;;;;10.50;4.40;;;23.30;1.00;;;;;;5007651;28;20461;-72
2023/08/14 01:46:11;;;;;;;7.80;3.80;;;23.30;1.00;;;;;;5005912;28;20938;-72
2023/08/14 01:48:37;;;;;;;4.77;3.50;;;23.30;1.00;;;;;;5007921;28;20557;-73
2023/08/14 01:51:04;;;;;;;7.13;3.93;;;23.50;1.00;;;;;;5010053;28;20506;-72
2023/08/14 01:53:33;;;;;;;6.50;3.80;;;23.30;1.00;;;;;;5008157;28;20464;-74
2023/08/14 01:55:59;;;;;;;5.50;3.90;;;23.30;1.00;;;;;;5009491;28;20784;-72
2023/08/14 01:58:25;;;;;;;6.07;4.03;;;23.30;1.00;;;;;;5006856;28;20443;-74
2023/08/14 02:00:50;;;;;;;11.43;4.30;;;23.20;1.00;;;;;;5009806;28;20182;-73
2023/08/14 02:03:16;;;;;;;7.03;4.50;;;23.30;1.00;;;;;;5007327;28;20205;-73
2023/08/14 02:05:41;;;;;;;8.20;4.70;;;23.20;1.00;;;;;;5006229;28;20194;-72
2023/08/14 02:08:06;;;;;;;6.93;4.43;;;23.20;1.00;;;;;;5008208;28;20185;-72
2023/08/14 02:10:32;;;;;;;5.60;4.40;;;23.10;1.00;;;;;;5008073;28;20648;-72
2023/08/14 02:12:58;;;;;;;7.53;4.03;;;23.10;1.00;;;;;;5007428;28;20304;-73
2023/08/14 02:15:23;;;;;;;9.33;4.47;;;23.10;1.00;;;;;;5005816;28;20683;-73
2023/08/14 02:17:49;;;;;;;10.83;4.27;;;23.10;1.00;;;;;;5006177;28;20182;-73
2023/08/14 02:20:14;;;;;;;6.40;4.40;;;23.00;1.00;;;;;;4998551;28;20170;-73
2023/08/14 02:22:40;;;;;;;9.10;4.57;;;23.00;1.00;;;;;;5005813;28;20671;-72
2023/08/14 02:25:06;;;;;;;9.63;4.33;;;23.00;1.00;;;;;;5008682;28;20221;-74
2023/08/14 02:27:32;;;;;;;8.93;4.47;;;23.10;1.00;;;;;;4996899;28;20189;-74
2023/08/14 02:29:57;;;;;;;7.80;4.43;;;23.10;1.00;;;;;;5009119;28;20441;-75
2023/08/14 02:32:23;;;;;;;9.70;4.57;;;23.00;1.00;;;;;;5022402;28;20720;-74
2023/08/14 02:34:50;;;;;;;6.80;4.40;;;23.00;1.00;;;;;;5008943;28;20316;-74
2023/08/14 02:37:17;;;;;;;7.03;4.60;;;22.90;1.00;;;;;;5007178;28;20185;-75
2023/08/14 02:39:43;;;;;;;6.60;4.97;;;22.90;1.00;;;;;;5006465;28;20436;-75
2023/08/14 02:42:10;;;;;;;11.97;4.50;;;23.40;1.00;;;;;;5007588;28;20432;-75
2023/08/14 02:44:36;;;;;;;8.57;4.87;;;22.70;1.00;;;;;;5005178;28;21010;-74
2023/08/14 02:47:02;;;;;;;5.67;4.60;;;22.80;1.00;;;;;;5005463;28;20996;-74
2023/08/14 02:49:27;;;;;;;7.50;4.80;;;22.80;1.00;;;;;;5007348;28;20552;-75
2023/08/14 02:51:53;;;;;;;8.87;5.30;;;22.70;1.00;;;;;;5008746;28;21020;-74
2023/08/14 02:54:19;;;;;;;7.13;4.73;;;22.70;1.00;;;;;;5008211;28;20205;-75
2023/08/14 02:56:44;;;;;;;5.80;4.50;;;22.50;1.00;;;;;;5006514;28;20865;-74
2023/08/14 02:59:10;;;;;;;10.60;4.87;;;22.40;1.00;;;;;;5006328;28;20182;-75
2023/08/14 03:01:36;;;;;;;8.67;5.63;;;22.40;1.00;;;;;;5008794;28;20217;-75
2023/08/14 03:04:01;;;;;;;7.60;5.07;;;22.30;1.00;;;;;;5007471;28;20212;-74
2023/08/14 03:06:29;;;;;;;7.93;4.87;;;22.30;1.00;;;;;;5005548;28;20245;-75
2023/08/14 03:08:55;;;;;;;7.83;4.97;;;22.20;1.00;;;;;;5001196;28;20182;-74
2023/08/14 03:11:21;;;;;;;8.30;5.20;;;22.20;1.00;;;;;;5007741;28;20440;-75
2023/08/14 03:13:47;;;;;;;9.63;5.70;;;22.10;1.00;;;;;;5008501;28;20213;-74
2023/08/14 03:16:12;;;;;;;10.30;5.50;;;22.10;1.00;;;;;;5005418;28;20186;-74
2023/08/14 03:18:38;;;;;;;7.40;5.20;;;22.10;1.00;;;;;;5006682;28;20193;-75
2023/08/14 03:21:04;;;;;;;11.37;5.43;;;;;;;;;;5008188;28;20265;-74
2023/08/14 03:23:29;;;;;;;12.93;5.17;;;22.00;1.00;;;;;;5008271;28;20665;-74
2023/08/14 03:25:55;;;;;;;5.90;5.00;;;21.90;1.00;;;;;;5002316;28;20174;-75
2023/08/14 03:28:20;;;;;;;8.57;5.27;;;21.80;1.00;;;;;;5005146;28;20182;-75
2023/08/14 03:30:46;;;;;;;7.80;5.53;;;21.80;1.00;;;;;;5007035;28;20564;-74
2023/08/14 03:33:11;;;;;;;9.00;5.17;;;21.80;1.00;;;;;;5007658;28;20212;-74
2023/08/14 03:35:37;;;;;;;8.87;5.20;;;21.80;1.00;;;;;;5006366;28;20197;-75
2023/08/14 03:38:02;;;;;;;10.10;5.17;;;21.80;1.00;;;;;;5008297;28;20259;-76
2023/08/14 03:40:29;;;;;;;7.37;4.90;;;21.80;1.00;;;;;;5004781;28;20560;-76
2023/08/14 03:42:55;;;;;;;8.40;5.60;;;21.70;1.00;;;;;;5007797;28;20349;-76
2023/08/14 03:45:20;;;;;;;9.30;5.10;;;21.80;1.00;;;;;;5005018;28;20524;-75
2023/08/14 03:47:46;;;;;;;11.10;5.60;;;21.70;1.00;;;;;;5005864;28;20188;-74
2023/08/14 03:50:11;;;;;;;9.30;5.27;;;21.60;1.00;;;;;;5008129;28;20649;-74
2023/08/14 03:52:37;;;;;;;8.93;5.23;;;21.50;1.00;;;;;;5007221;28;20289;-74
2023/08/14 03:55:02;;;;;;;9.73;5.80;;;21.40;1.00;;;;;;5006233;28;20214;-74
2023/08/14 03:57:28;;;;;;;8.30;5.70;;;21.30;1.00;;;;;;4994474;28;20221;-74
2023/08/14 03:59:53;;;;;;;9.30;5.77;;;21.20;1.00;;;;;;5006160;28;20217;-76
2023/08/14 04:02:19;;;;;;;11.40;6.10;;;21.20;1.00;;;;;;5005404;28;20673;-74
2023/08/14 04:04:44;;;;;;;9.53;6.20;;;21.20;1.00;;;;;;5008015;28;20201;-74
2023/08/14 04:07:10;;;;;;;7.37;5.60;;;21.20;1.00;;;;;;5005228;28;20182;-75
2023/08/14 04:09:36;;;;;;;9.30;5.53;;;21.20;1.00;;;;;;5007954;28;20533;-74
2023/08/14 04:12:02;;;;;;;10.50;6.03;;;21.20;1.00;;;;;;5007272;28;20201;-75
2023/08/14 04:14:28;;;;;;;7.20;5.77;;;21.30;1.00;;;;;;5006555;28;20214;-74
2023/08/14 04:16:54;;;;;;;9.13;5.67;;;21.30;1.00;;;;;;5006502;28;20444;-75
2023/08/14 04:19:20;;;;;;;7.80;5.27;;;21.20;1.00;;;;;;5005053;28;20595;-74
2023/08/14 04:21:46;;;;;;;12.77;5.70;;;21.30;1.00;;;;;;5006755;28;20201;-75
2023/08/14 04:24:11;;;;;;;10.67;5.80;;;21.30;1.00;;;;;;5003576;28;20248;-75
2023/08/14 04:26:37;;;;;;;9.60;6.10;;;21.40;1.00;;;;;;5006299;28;20249;-75
2023/08/14 04:29:06;;;;;;;10.47;5.70;;;21.40;1.00;;;;;;5006160;28;20244;-75
2023/08/14 04:31:35;;;;;;;10.60;5.70;;;21.40;1.00;;;;;;5003667;28;20451;-74
2023/08/14 04:34:01;;;;;;;9.00;5.60;;;21.50;1.00;;;;;;5005357;28;20510;-75
2023/08/14 04:36:26;;;;;;;12.83;5.67;;;21.50;1.00;;;;;;5007572;28;20441;-75
2023/08/14 04:38:52;;;;;;;7.97;6.07;;;21.60;1.00;;;;;;5004270;28;20591;-74
2023/08/14 04:41:18;;;;;;;10.53;7.07;;;21.60;1.00;;;;;;5006975;28;20786;-74
2023/08/14 04:43:43;;;;;;;7.97;6.10;;;21.60;1.00;;;;;;5006013;28;20266;-75
2023/08/14 04:46:11;;;;;;;7.87;6.00;;;21.70;1.00;;;;;;5006265;28;20558;-75
2023/08/14 04:48:37;;;;;;;7.77;6.27;;;21.80;1.00;;;;;;5004568;28;20349;-74
2023/08/14 04:51:04;;;;;;;8.20;6.07;;;21.80;1.00;;;;;;5004118;28;20447;-75
2023/08/14 04:53:30;;;;;;;14.03;6.40;;;21.80;1.00;;;;;;5006201;28;20912;-75
2023/08/14 04:55:55;;;;;;;9.00;6.00;;;21.80;1.00;;;;;;4999311;28;20445;-75
2023/08/14 04:58:20;;;;;;;8.70;6.37;;;21.80;1.00;;;;;;5006064;28;20184;-75
2023/08/14 05:00:46;;;;;;;7.57;5.87;;;21.80;1.00;;;;;;5005764;28;20192;-75
2023/08/14 05:03:11;;;;;;;9.97;5.80;;;21.90;1.00;;;;;;5006128;28;20552;-75
2023/08/14 05:05:37;;;;;;;7.97;6.00;;;21.90;1.00;;;;;;5005821;28;20232;-75
2023/08/14 05:08:03;;;;;;;6.97;5.37;;;22.00;1.00;;;;;;5007144;28;20294;-75
2023/08/14 05:10:28;;;;;;;8.80;5.60;;;22.00;1.00;;;;;;5005133;28;20177;-74
2023/08/14 05:12:55;;;;;;;6.77;5.43;;;22.30;1.00;;;;;;5004892;28;20194;-76
2023/08/14 05:15:21;;;;;;;9.23;5.27;;;22.30;1.00;;;;;;5006600;28;20178;-75
2023/08/14 05:17:46;;;;;;;9.80;6.00;;;22.50;1.00;;;;;;5005126;28;20811;-75
2023/08/14 05:20:12;;;;;;;8.70;5.53;;;22.40;1.00;;;;;;5007780;28;20703;-75
2023/08/14 05:22:38;;;;;;;9.67;5.60;;;22.40;1.00;;;;;;5007542;28;20185;-75
2023/08/14 05:25:05;;;;;;;7.50;5.30;;;22.50;1.00;;;;;;5008310;28;20284;-75
2023/08/14 05:27:36;;;;;;;11.07;5.20;;;22.40;1.00;;;;;;5009564;28;20218;-75
2023/08/14 05:30:02;;;;;;;6.50;4.83;;;22.60;1.00;;;;;;5040083;22;20553;-76
2023/08/14 05:32:28;;;;;;;7.00;5.43;;;22.50;1.00;;;;;;5029273;28;20559;-74
2023/08/14 05:34:53;;;;;;;7.50;5.20;;;22.60;1.00;;;;;;5030017;28;20659;-74
2023/08/14 05:37:19;;;;;;;10.30;5.27;;;22.70;1.00;;;;;;5030687;28;20185;-74
2023/08/14 05:39:44;;;;;;;6.20;4.80;;;22.80;1.00;;;;;;5031785;28;20231;-73
2023/08/14 05:42:10;;;;;;;10.17;4.93;;;22.90;1.00;;;;;;5031607;28;20177;-74
2023/08/14 05:44:35;;;;;;;11.17;4.90;;;23.00;1.00;;;;;;5029538;28;20185;-74
2023/08/14 05:47:01;;;;;;;9.40;5.50;;;23.20;1.00;;;;;;5027126;28;20189;-76
2023/08/14 05:49:27;;;;;;;9.10;4.97;;;23.50;1.00;;;;;;5031732;28;20197;-77
2023/08/14 05:51:52;;;;;;;9.20;5.60;;;23.70;1.00;;;;;;5029252;28;20223;-76
2023/08/14 05:54:18;;;;;;;11.33;5.37;;;23.80;1.00;;;;;;5037010;28;20364;-76
2023/08/14 05:56:45;;;;;;;6.57;5.00;;;23.80;1.00;;;;;;5031579;28;20193;-74
2023/08/14 05:59:10;;;;;;;7.07;5.13;;;24.10;1.00;;;;;;5029983;28;20432;-76
2023/08/14 06:01:36;;;;;;;8.10;4.87;;;24.20;1.00;;;;;;5029076;28;20428;-76
2023/08/14 06:04:01;;;;;;;7.93;4.60;;;24.10;1.00;;;;;;5028906;28;20547;-77
2023/08/14 06:06:27;;;;;;;6.70;4.93;;;24.20;1.00;;;;;;5030459;28;20177;-76
2023/08/14 06:08:52;;;;;;;7.73;4.97;;;24.20;1.00;;;;;;5027994;28;20188;-76
2023/08/14 06:11:18;;;;;;;6.57;4.57;;;24.40;1.00;;;;;;5026684;28;20209;-77
2023/08/14 06:13:43;;;;;;;6.53;4.83;;;24.60;1.00;;;;;;5028192;28;20217;-77
2023/08/14 06:16:10;;;;;;;5.97;4.30;;;24.70;1.00;;;;;;5028981;28;20656;-77
2023/08/14 06:18:36;;;;;;;9.83;4.80;;;24.90;1.00;;;;;;5029462;28;20181;-77
2023/08/14 06:21:01;;;;;;;9.33;4.53;;;25.10;1.00;;;;;;5027128;28;20484;-77
2023/08/14 06:23:27;;;;;;;7.77;4.87;;;25.30;1.00;;;;;;5027736;28;20185;-77
2023/08/14 06:25:52;;;;;;;13.60;4.37;;;25.50;1.00;;;;;;5028066;28;20717;-76
2023/08/14 06:28:18;;;;;;;8.47;4.60;;;25.60;1.00;;;;;;5030014;28;20686;-77
2023/08/14 06:30:43;;;;;;;7.10;4.70;;;25.60;1.00;;;;;;5026742;28;20255;-77
2023/08/14 06:33:09;;;;;;;7.53;4.20;;;25.50;1.00;;;;;;5021581;28;20201;-74
2023/08/14 06:35:34;;;;;;;5.33;3.97;;;25.40;1.00;;;;;;5022336;28;20268;-79
2023/08/14 06:38:00;;;;;;;6.50;3.80;;;25.20;1.00;;;;;;5030523;28;20189;-77
2023/08/14 06:40:26;;;;;;;7.47;4.23;;;25.30;1.00;;;;;;5031136;28;20285;-79
2023/08/14 06:42:52;;;;;;;5.97;4.40;;;25.20;1.00;;;;;;5030095;28;20678;-80
2023/08/14 06:45:17;;;;;;;8.90;4.87;;;25.20;1.00;;;;;;5029409;28;20185;-81
2023/08/14 06:47:44;;;;;;;7.27;4.93;;;25.10;1.00;;;;;;5027152;28;20295;-78
2023/08/14 06:50:11;;;;;;;9.57;4.87;;;25.00;1.00;;;;;;5028970;28;20200;-79
2023/08/14 06:52:37;;;;;;;6.57;4.73;;;25.00;1.00;;;;;;5030414;28;20860;-78
2023/08/14 06:55:02;;;;;;;10.30;4.90;;;25.10;1.00;;;;;;5029885;28;20432;-78
2023/08/14 06:57:28;;;;;;;6.63;4.57;;;25.00;1.00;;;;;;5024504;28;20188;-79
2023/08/14 06:59:53;;;;;;;6.43;4.17;;;25.00;1.00;;;;;;5029395;28;20211;-78
2023/08/14 07:02:19;;;;;;;7.30;4.10;;;25.20;1.00;;;;;;5030063;28;20189;-77
2023/08/14 07:04:44;;;;;;;6.20;4.30;;;25.60;1.00;;;;;;5029731;28;20205;-77
2023/08/14 07:07:10;;;;;;;5.93;4.20;;;25.80;1.00;;;;;;5029954;28;20311;-78
2023/08/14 07:09:35;;;;;;;6.20;3.93;;;25.90;1.00;;;;;;5026510;28;20208;-79
2023/08/14 07:12:01;;;;;;;4.67;3.70;;;26.00;1.00;;;;;;5027325;28;20215;-81
2023/08/14 07:14:26;;;;;;;9.10;4.10;;;26.10;1.00;;;;;;5028936;28;20654;-81
2023/08/14 07:16:52;;;;;;;5.80;3.93;;;26.10;1.00;;;;;;5026572;28;20189;-80
2023/08/14 07:19:17;;;;;;;10.97;4.20;;;26.30;1.00;;;;;;5025072;28;20205;-80
2023/08/14 07:21:44;;;;;;;4.70;3.60;;;26.40;1.00;;;;;;5027716;28;20188;-79
2023/08/14 07:24:12;;;;;;;8.97;3.97;;;26.50;1.00;;;;;;5027749;28;20173;-79
2023/08/14 07:26:38;;;;;;;5.03;3.87;;;26.50;1.00;;;;;;5025988;28;20435;-79
2023/08/14 07:29:04;;;;;;;5.23;3.80;;;26.80;1.00;;;;;;5029370;28;20459;-77
2023/08/14 07:31:29;;;;;;;6.17;3.90;;;26.80;1.00;;;;;;5027113;28;21026;-79
2023/08/14 07:33:55;;;;;;;7.33;4.07;;;27.00;1.00;;;;;;5027180;28;20635;-79
2023/08/14 07:36:20;;;;;;;6.30;4.10;;;27.20;1.00;;;;;;5027385;28;20178;-79
2023/08/14 07:38:46;;;;;;;7.57;3.90;;;27.10;1.00;;;;;;5025943;28;20599;-79
2023/08/14 07:41:12;;;;;;;6.80;4.00;;;27.00;1.00;;;;;;5026590;28;20255;-80
2023/08/14 07:43:37;;;;;;;5.33;3.90;;;27.10;1.00;;;;;;5025883;28;20185;-79
2023/08/14 07:46:03;;;;;;;10.47;3.93;;;27.20;1.00;;;;;;5025136;28;20647;-79
2023/08/14 07:48:28;;;;;;;6.17;4.00;;;27.20;1.00;;;;;;5021217;28;20185;-80
2023/08/14 07:50:54;;;;;;;5.43;4.30;;;27.30;1.00;;;;;;5026877;28;20367;-81
2023/08/14 07:53:20;;;;;;;7.20;4.20;;;27.50;1.00;;;;;;5027433;28;20213;-79
2023/08/14 07:55:48;;;;;;;7.47;4.40;;;27.60;1.00;;;;;;5028303;28;20209;-79
2023/08/14 07:58:14;;;;;;;8.03;4.37;;;27.70;1.00;;;;;;5026042;28;20185;-79
2023/08/14 08:00:40;;;;;;;5.60;4.23;;;28.10;1.00;;;;;;5025787;28;21675;-77
2023/08/14 08:03:05;;;;;;;7.03;4.33;;;27.60;1.00;;;;;;5025989;28;20347;-77
2023/08/14 08:05:31;;;;;;;4.93;3.93;;;27.70;1.00;;;;;;5025480;28;20650;-76
2023/08/14 08:07:56;;;;;;;5.23;4.20;;;28.10;1.00;;;;;;5025050;28;20771;-77
2023/08/14 08:10:22;;;;;;;10.10;4.43;;;28.80;1.00;;;;;;5027039;28;20353;-76
2023/08/14 08:12:47;;;;;;;7.30;4.07;;;29.70;1.00;;;;;;5027501;28;20205;-76
2023/08/14 08:15:13;;;;;;;7.27;4.20;;;30.70;1.00;;;;;;5025446;28;20181;-77
2023/08/14 08:17:39;;;;;;;6.03;3.97;;;31.70;1.00;;;;;;5025320;28;20319;-75
2023/08/14 08:20:05;;;;;;;7.03;4.15;;;31.70;1.00;;;;;;5024662;28;20204;-76
2023/08/14 08:22:31;;;;;;;6.18;4.28;;;31.10;1.00;;;;;;5025882;28;20185;-78
2023/08/14 08:24:57;;;;;;;4.80;4.00;;;30.70;1.00;;;;;;5028011;28;20181;-77
2023/08/14 08:27:22;;;;;;;12.02;4.28;;;31.50;1.00;;;;;;5024236;28;20239;-77
2023/08/14 08:29:48;;;;;;;5.65;3.95;;;32.30;1.00;;;;;;5026251;28;20220;-77
2023/08/14 08:32:13;;;;;;;6.90;4.47;;;33.10;1.00;;;;;;5023487;28;20219;-79
2023/08/14 08:34:39;;;;;;;6.28;4.00;;;33.70;1.00;;;;;;5025119;28;20260;-77
2023/08/14 08:37:05;;;;;;;8.23;4.10;;;34.30;1.00;;;;;;5025825;28;20866;-76
2023/08/14 08:39:31;;;;;;;5.80;3.78;;;35.30;1.00;;;;;;5025053;28;20251;-78
2023/08/14 08:41:57;;;;;;;5.53;3.55;;;35.60;1.00;;;;;;5025535;28;20201;-78
2023/08/14 08:44:25;;;;;;;7.38;3.40;;;36.50;1.00;;;;;;5026626;28;20208;-77
2023/08/14 08:46:52;;;;;;;5.10;3.30;;;37.00;1.00;;;;;;5026834;28;20190;-77
2023/08/14 08:49:18;;;;;;;8.55;3.40;;;37.70;1.00;;;;;;5026303;28;20255;-78
2023/08/14 08:51:44;;;;;;;6.30;3.50;;;38.00;1.00;;;;;;5025366;28;20196;-79
2023/08/14 08:54:15;;;;;;;7.45;3.88;;;38.00;1.00;;;;;;5029306;28;20204;-76
2023/08/14 08:56:41;;;;;;;5.28;3.75;;;38.30;1.00;;;;;;5030919;28;20280;-79
2023/08/14 08:59:08;;;;;;;5.80;3.80;;;38.30;1.00;;;;;;5027060;28;20639;-75
2023/08/14 09:01:34;;;;;;;8.73;3.50;;;38.40;1.00;;;;;;5030792;28;20197;-75
2023/08/14 09:04:01;;;;;;;8.10;3.83;;;38.20;1.00;;;;;;5030423;28;20591;-75
2023/08/14 09:06:26;;;;;;;4.60;3.20;;;38.70;1.00;;;;;;5031516;28;20281;-75
2023/08/14 09:08:52;;;;;;;6.30;3.33;;;39.00;1.00;;;;;;5029061;28;20276;-75
2023/08/14 09:11:18;;;;;;;6.75;3.20;;;39.00;1.00;;;;;;5029917;28;20216;-75
2023/08/14 09:13:43;;;;;;;5.28;3.00;;;39.40;1.00;;;;;;5030308;28;20283;-77
2023/08/14 09:16:13;;;;;;;4.30;3.25;;;39.60;1.00;;;;;;5029986;28;20185;-76
2023/08/14 09:18:39;;;;;;;7.28;3.40;;;39.70;1.00;;;;;;5031493;28;20191;-77
2023/08/14 09:21:04;;;;;;;7.30;2.92;;;39.80;1.00;;;;;;5031081;28;20697;-77
2023/08/14 09:23:32;;;;;;;4.95;3.20;;;39.90;1.00;;;;;;5028286;28;20300;-76
2023/08/14 09:25:59;;;;;;;5.10;3.40;;;39.70;1.00;;;;;;5031039;28;20178;-75
2023/08/14 09:28:25;;;;;;;7.43;3.65;;;39.40;1.00;;;;;;5029046;28;20622;-77
2023/08/14 09:30:50;;;;;;;5.93;3.70;;;39.10;1.00;;;;;;5027065;28;20217;-77
2023/08/14 09:33:16;;;;;;;4.60;3.30;;;39.60;1.00;;;;;;5030136;28;20279;-76
2023/08/14 09:35:52;;;;;;;5.25;3.13;;;39.50;1.00;;;;;;5029853;28;20647;-76
2023/08/14 09:38:17;;;;;;;6.70;3.25;;;39.30;1.00;;;;;;5026916;28;20267;-76
2023/08/14 09:40:43;;;;;;;6.75;3.90;;;39.30;1.00;;;;;;5027245;28;20665;-76
2023/08/14 09:43:11;;;;;;;5.28;3.13;;;39.30;1.00;;;;;;5031140;28;20189;-77
2023/08/14 09:45:36;;;;;;;5.45;3.10;;;40.20;1.00;;;;;;5032178;28;20211;-77
2023/08/14 09:48:03;;;;;;;5.10;3.13;;;40.60;1.00;;;;;;5025705;28;20185;-76
2023/08/14 09:50:30;;;;;;;8.63;3.35;;;40.50;1.00;;;;;;5029297;28;20288;-77
2023/08/14 09:52:57;;;;;;;13.07;4.10;;;40.50;1.00;;;;;;5031309;28;20702;-77
2023/08/14 09:55:25;;;;;;;4.38;3.55;;;41.10;1.00;;;;;;5028079;28;20181;-77
2023/08/14 09:57:50;;;;;;;5.55;3.28;;;41.80;1.00;;;;;;5030769;28;20196;-77
2023/08/14 10:00:16;;;;;;;5.07;3.30;;;42.10;1.00;;;;;;5030224;28;20718;-76
2023/08/14 10:02:44;;;;;;;3.65;3.03;;;41.00;1.00;;;;;;5030251;28;20196;-78
2023/08/14 10:05:10;;;;;;;4.93;3.67;;;41.00;1.00;;;;;;5029485;28;20181;-77
2023/08/14 10:07:38;;;;;;;4.75;3.53;;;41.60;1.00;;;;;;5029868;28;20235;-76
2023/08/14 10:10:07;;;;;;;5.03;3.50;;;41.90;1.00;;;;;;5030478;28;20263;-76
2023/08/14 10:12:39;;;;;;;6.10;3.40;;;42.90;1.00;;;;;;5026817;28;20217;-78
2023/08/14 10:15:09;;;;;;;5.47;3.60;;;43.90;1.00;;;;;;5031070;28;20209;-78
2023/08/14 10:17:43;;;;;;;5.00;3.40;;;44.20;1.00;;;;;;5027795;28;20591;-77
2023/08/14 10:20:11;;;;;;;6.97;3.33;;;44.30;1.00;;;;;;5029622;28;20197;-77
2023/08/14 10:22:39;;;;;;;7.32;3.47;;;43.70;1.00;;;;;;5030369;28;20177;-78
2023/08/14 10:25:06;;;;;;;5.20;3.63;;;43.90;1.00;;;;;;5029641;28;20187;-78
2023/08/14 10:27:32;;;;;;;4.75;3.05;;;43.50;1.00;;;;;;5031921;28;20259;-80
2023/08/14 10:29:58;;;;;;;5.00;3.50;;;42.90;1.00;;;;;;5031920;28;20259;-79
2023/08/14 10:32:24;;;;;;;5.75;3.30;;;42.60;1.00;;;;;;5031547;28;20201;-79
2023/08/14 10:34:50;;;;;;;5.35;3.08;;;42.40;1.00;;;;;;5031757;28;20177;-78
2023/08/14 10:37:41;;;;;;;6.40;2.90;;;42.30;1.00;;;;;;5029551;28;20173;-74
2023/08/14 10:40:19;;;;;;;6.10;3.05;;;41.40;1.00;;;;;;5029771;28;20860;-77
2023/08/14 10:42:52;;;;;;;3.67;2.75;;;39.80;1.00;;;;;;5026373;28;20188;-75
2023/08/14 10:45:21;;;;;;;4.68;3.00;;;38.50;1.00;;;;;;5031148;28;20181;-77
2023/08/14 10:47:47;;;;;;;4.80;3.10;;;38.60;1.00;;;;;;5030027;28;20177;-77
2023/08/14 10:50:20;;;;;;;5.40;2.70;;;39.80;1.00;;;;;;5031003;28;20706;-77
2023/08/14 10:52:56;;;;;;;3.78;2.70;;;41.50;1.00;;;;;;5023518;28;20208;-76
2023/08/14 10:55:40;;;;;;;4.22;3.25;;;41.50;1.00;;;;;;5030745;28;20344;-74
2023/08/14 10:58:27;;;;;;;6.43;2.92;;;40.90;1.00;;;;;;5026009;28;20177;-77
2023/08/14 11:00:53;;;;;;;4.50;3.10;;;39.50;1.00;;;;;;5024712;28;20201;-77
2023/08/14 11:03:19;;;;;;;4.60;3.20;;;38.90;1.00;;;;;;5035182;28;20547;-74
2023/08/14 11:05:44;;;;;;;4.53;3.20;;;39.20;1.00;;;;;;5029100;28;20189;-77
2023/08/14 11:08:12;;;;;;;6.03;2.90;;;40.30;1.00;;;;;;5027351;28;20208;-77
2023/08/14 11:10:38;;;;;;;6.63;2.92;;;40.40;1.00;;;;;;5027100;28;20567;-77
2023/08/14 11:13:09;;;;;;;5.03;2.90;;;40.70;1.00;;;;;;5028021;28;20201;-77
2023/08/14 11:15:35;;;;;;;3.85;2.90;;;40.30;1.00;;;;;;5028865;28;20192;-76
2023/08/14 11:18:02;;;;;;;5.18;2.80;;;41.60;1.00;;;;;;5026367;28;20169;-78
2023/08/14 11:20:31;;;;;;;3.25;2.53;;;42.90;1.00;;;;;;5025598;28;20273;-76
2023/08/14 11:22:59;;;;;;;3.92;2.88;;;43.20;1.00;;;;;;5029664;28;20269;-77
2023/08/14 11:25:24;;;;;;;6.55;3.33;;;43.20;1.00;;;;;;5029376;28;20193;-76
2023/08/14 11:27:53;;;;;;;4.00;2.85;;;43.80;1.00;;;;;;5030860;28;20717;-78
2023/08/14 11:30:20;;;;;;;4.05;2.72;;;44.10;1.00;;;;;;5050518;22;20419;-75
2023/08/14 11:32:46;;;;;;;3.70;2.70;;;43.60;1.00;;;;;;5004677;28;20611;-75
2023/08/14 11:35:12;;;;;;;3.80;2.53;;;43.00;1.00;;;;;;5011390;28;20182;-77
2023/08/14 11:37:38;;;;;;;5.90;2.88;;;42.80;1.00;;;;;;5010061;28;20186;-76
2023/08/14 11:40:05;;;;;;;4.80;2.80;;;42.80;1.00;;;;;;5010035;28;20224;-76
2023/08/14 11:42:34;;;;;;;4.97;2.80;;;43.50;1.00;;;;;;5004188;28;20222;-74
2023/08/14 11:45:03;;;;;;;5.50;2.80;;;44.20;1.00;;;;;;5009727;28;20297;-73
2023/08/14 11:47:46;;;;;;;3.90;2.60;;;43.80;1.00;;;;;;5009146;28;20209;-74
2023/08/14 11:50:12;;;;;;;3.40;2.50;;;43.90;1.00;;;;;;5009816;28;20208;-76
2023/08/14 11:52:38;;;;;;;3.97;2.80;;;44.40;1.00;;;;;;5009791;28;20210;-75
2023/08/14 11:55:04;;;;;;;4.82;2.50;;;45.00;1.00;;;;;;5009698;28;20595;-74
2023/08/14 11:57:32;;;;;;;4.43;2.50;;;45.40;1.00;;;;;;5008992;28;20178;-72
2023/08/14 11:59:59;;;;;;;7.20;2.60;;;45.40;1.00;;;;;;5008859;28;20217;-75
2023/08/14 12:02:28;;;;;;;3.15;2.45;;;46.10;1.00;;;;;;5008060;28;20182;-74
2023/08/14 12:04:54;;;;;;;4.25;2.70;;;46.60;1.00;;;;;;5016857;28;20182;-75
2023/08/14 12:07:21;;;;;;;4.57;3.00;;;45.70;1.00;;;;;;5007053;28;20199;-75
2023/08/14 12:09:48;;;;;;;4.97;2.75;;;45.40;1.00;;;;;;5011962;28;20627;-75
2023/08/14 12:12:14;;;;;;;7.35;2.38;;;45.60;1.00;;;;;;5015247;28;20248;-74
2023/08/14 12:14:46;;;;;;;4.97;2.60;;;46.00;1.00;;;;;;5010295;28;20189;-75
2023/08/14 12:17:12;;;;;;;8.43;2.80;;;46.50;1.00;;;;;;5010158;28;20182;-74
2023/08/14 12:19:38;;;;;;;5.03;2.78;;;43.90;1.00;;;;;;5009885;28;20244;-75
2023/08/14 12:22:06;;;;;;;4.60;2.80;;;43.20;1.00;;;;;;5009811;28;20189;-75
2023/08/14 12:24:42;;;;;;;8.65;2.90;;;43.60;1.00;;;;;;5009992;28;20182;-75
2023/08/14 12:27:16;;;;;;;6.18;3.20;;;44.10;1.00;;;;;;5009641;28;20185;-74
2023/08/14 12:29:43;;;;;;;4.40;2.90;;;44.40;1.00;;;;;;5011557;28;20664;-75
2023/08/14 12:32:08;;;;;;;8.75;3.50;;;44.10;1.00;;;;;;5012907;28;20548;-73
2023/08/14 12:34:34;;;;;;;5.90;2.80;;;42.60;1.00;;;;;;5010594;28;20181;-74
2023/08/14 12:36:59;;;;;;;5.28;3.38;;;41.70;1.00;;;;;;5012691;28;20220;-73
2023/08/14 12:39:25;;;;;;;4.50;2.97;;;;;;;;;;5015204;28;20260;-73
2023/08/14 12:41:55;;;;;;;4.80;3.08;;;42.80;1.00;;;;;;5011711;28;20264;-74
2023/08/14 12:44:21;;;;;;;8.68;3.20;;;42.50;1.00;;;;;;5012260;28;20192;-75
2023/08/14 12:46:46;;;;;;;5.40;3.38;;;40.60;1.00;;;;;;5012462;28;20268;-75
2023/08/14 12:49:12;;;;;;;4.82;3.65;;;39.30;1.00;;;;;;5011890;28;20189;-74
2023/08/14 12:51:41;;;;;;;5.85;3.83;;;38.50;1.00;;;;;;5012221;28;20210;-73
2023/08/14 12:54:07;;;;;;;10.05;3.40;;;38.00;1.00;;;;;;5013643;28;20648;-74